sensor_id;sensor_type;location;lat;lon;timestamp;P1;durP1;ratioP1;P2;durP2;ratioP2
36725;SDS011;44936;52.086;5.150;2023-05-09T00:01:14;21.58;;;5.22;;
36725;SDS011;44936;52.086;5.150;2023-05-09T00:03:41;15.23;;;4.10;;
36725;SDS011;44936;52.086;5.150;2023-05-09T00:06:07;21.08;;;5.30;;
36725;SDS011;44936;52.086;5.150;2023-05-09T00:08:33;21.13;;;5.35;;
36725;SDS011;44936;52.086;5.150;2023-05-09T00:10:58;15.98;;;4.90;;
36725;SDS011;44936;52.086;5.150;2023-05-09T00:13:26;21.40;;;5.63;;
36725;SDS011;44936;52.086;5.150;2023-05-09T00:15:51;18.15;;;4.43;;
36725;SDS011;44936;52.086;5.150;2023-05-09T00:18:21;16.27;;;4.78;;
36725;SDS011;44936;52.086;5.150;2023-05-09T00:20:48;17.90;;;5.30;;
36725;SDS011;44936;52.086;5.150;2023-05-09T00:23:14;22.13;;;6.13;;
36725;SDS011;44936;52.086;5.150;2023-05-09T00:25:40;16.92;;;4.97;;
36725;SDS011;44936;52.086;5.150;2023-05-09T00:28:05;15.77;;;4.80;;
36725;SDS011;44936;52.086;5.150;2023-05-09T00:30:31;18.02;;;5.05;;
36725;SDS011;44936;52.086;5.150;2023-05-09T00:32:56;18.17;;;5.00;;
36725;SDS011;44936;52.086;5.150;2023-05-09T00:35:22;21.10;;;5.05;;
36725;SDS011;44936;52.086;5.150;2023-05-09T00:37:47;22.30;;;6.18;;
36725;SDS011;44936;52.086;5.150;2023-05-09T00:40:13;18.52;;;4.43;;
36725;SDS011;44936;52.086;5.150;2023-05-09T00:42:38;24.05;;;5.63;;
36725;SDS011;44936;52.086;5.150;2023-05-09T00:45:04;16.95;;;4.72;;
36725;SDS011;44936;52.086;5.150;2023-05-09T00:47:30;16.90;;;4.78;;
36725;SDS011;44936;52.086;5.150;2023-05-09T00:49:56;19.45;;;5.30;;
36725;SDS011;44936;52.086;5.150;2023-05-09T00:52:23;19.73;;;5.72;;
36725;SDS011;44936;52.086;5.150;2023-05-09T00:54:50;25.27;;;5.78;;
36725;SDS011;44936;52.086;5.150;2023-05-09T00:57:16;20.00;;;6.10;;
36725;SDS011;44936;52.086;5.150;2023-05-09T00:59:41;19.13;;;4.90;;
36725;SDS011;44936;52.086;5.150;2023-05-09T01:02:07;15.18;;;4.35;;
36725;SDS011;44936;52.086;5.150;2023-05-09T01:04:32;18.83;;;4.80;;
36725;SDS011;44936;52.086;5.150;2023-05-09T01:09:59;21.55;;;5.18;;
36725;SDS011;44936;52.086;5.150;2023-05-09T01:18:11;20.10;;;4.68;;
36725;SDS011;44936;52.086;5.150;2023-05-09T01:20:42;18.73;;;5.28;;
36725;SDS011;44936;52.086;5.150;2023-05-09T01:23:30;16.38;;;4.88;;
36725;SDS011;44936;52.086;5.150;2023-05-09T01:26:20;21.42;;;4.80;;
36725;SDS011;44936;52.086;5.150;2023-05-09T01:32:02;21.83;;;4.90;;
36725;SDS011;44936;52.086;5.150;2023-05-09T01:34:31;16.67;;;4.88;;
36725;SDS011;44936;52.086;5.150;2023-05-09T01:36:59;15.85;;;4.95;;
36725;SDS011;44936;52.086;5.150;2023-05-09T01:39:28;18.80;;;4.80;;
36725;SDS011;44936;52.086;5.150;2023-05-09T01:41:56;18.45;;;4.82;;
36725;SDS011;44936;52.086;5.150;2023-05-09T01:44:25;14.75;;;4.47;;
36725;SDS011;44936;52.086;5.150;2023-05-09T01:46:56;20.45;;;5.22;;
36725;SDS011;44936;52.086;5.150;2023-05-09T01:49:23;21.42;;;5.38;;
36725;SDS011;44936;52.086;5.150;2023-05-09T01:51:50;12.98;;;4.03;;
36725;SDS011;44936;52.086;5.150;2023-05-09T01:54:18;14.73;;;4.30;;
36725;SDS011;44936;52.086;5.150;2023-05-09T01:56:46;14.70;;;4.20;;
36725;SDS011;44936;52.086;5.150;2023-05-09T01:59:13;20.13;;;5.15;;
36725;SDS011;44936;52.086;5.150;2023-05-09T02:01:41;16.70;;;4.93;;
36725;SDS011;44936;52.086;5.150;2023-05-09T02:04:08;16.92;;;4.40;;
36725;SDS011;44936;52.086;5.150;2023-05-09T02:06:34;14.98;;;4.70;;
36725;SDS011;44936;52.086;5.150;2023-05-09T02:09:00;13.80;;;4.38;;
36725;SDS011;44936;52.086;5.150;2023-05-09T02:11:27;16.20;;;4.35;;
36725;SDS011;44936;52.086;5.150;2023-05-09T02:13:52;19.63;;;4.80;;
36725;SDS011;44936;52.086;5.150;2023-05-09T02:16:17;15.07;;;4.85;;
36725;SDS011;44936;52.086;5.150;2023-05-09T02:18:43;17.83;;;5.47;;
36725;SDS011;44936;52.086;5.150;2023-05-09T02:21:08;21.17;;;5.22;;
36725;SDS011;44936;52.086;5.150;2023-05-09T02:23:34;15.90;;;4.45;;
36725;SDS011;44936;52.086;5.150;2023-05-09T02:26:00;15.85;;;4.72;;
36725;SDS011;44936;52.086;5.150;2023-05-09T02:28:26;18.33;;;5.10;;
36725;SDS011;44936;52.086;5.150;2023-05-09T02:30:53;17.90;;;4.93;;
36725;SDS011;44936;52.086;5.150;2023-05-09T02:33:21;13.55;;;4.45;;
36725;SDS011;44936;52.086;5.150;2023-05-09T02:35:47;19.90;;;4.70;;
36725;SDS011;44936;52.086;5.150;2023-05-09T02:38:13;23.33;;;6.32;;
36725;SDS011;44936;52.086;5.150;2023-05-09T02:40:41;17.77;;;4.60;;
36725;SDS011;44936;52.086;5.150;2023-05-09T02:43:08;19.58;;;5.22;;
36725;SDS011;44936;52.086;5.150;2023-05-09T02:45:34;21.83;;;5.03;;
36725;SDS011;44936;52.086;5.150;2023-05-09T02:47:59;21.20;;;5.32;;
36725;SDS011;44936;52.086;5.150;2023-05-09T02:50:24;20.33;;;4.88;;
36725;SDS011;44936;52.086;5.150;2023-05-09T02:52:50;18.73;;;4.57;;
36725;SDS011;44936;52.086;5.150;2023-05-09T02:55:16;15.43;;;4.50;;
36725;SDS011;44936;52.086;5.150;2023-05-09T02:57:41;17.67;;;4.07;;
36725;SDS011;44936;52.086;5.150;2023-05-09T03:00:06;14.60;;;4.53;;
36725;SDS011;44936;52.086;5.150;2023-05-09T03:02:33;16.70;;;4.47;;
36725;SDS011;44936;52.086;5.150;2023-05-09T03:04:59;16.77;;;4.28;;
36725;SDS011;44936;52.086;5.150;2023-05-09T03:07:25;14.82;;;4.05;;
36725;SDS011;44936;52.086;5.150;2023-05-09T03:09:50;15.50;;;5.00;;
36725;SDS011;44936;52.086;5.150;2023-05-09T03:12:15;13.43;;;4.13;;
36725;SDS011;44936;52.086;5.150;2023-05-09T03:14:41;13.60;;;4.13;;
36725;SDS011;44936;52.086;5.150;2023-05-09T03:17:06;14.68;;;4.30;;
36725;SDS011;44936;52.086;5.150;2023-05-09T03:19:31;9.80;;;3.28;;
36725;SDS011;44936;52.086;5.150;2023-05-09T03:21:57;17.65;;;4.78;;
36725;SDS011;44936;52.086;5.150;2023-05-09T03:24:24;12.57;;;3.92;;
36725;SDS011;44936;52.086;5.150;2023-05-09T03:26:50;13.23;;;4.05;;
36725;SDS011;44936;52.086;5.150;2023-05-09T03:29:15;17.25;;;4.60;;
36725;SDS011;44936;52.086;5.150;2023-05-09T03:31:41;10.50;;;3.72;;
36725;SDS011;44936;52.086;5.150;2023-05-09T03:34:06;11.30;;;3.88;;
36725;SDS011;44936;52.086;5.150;2023-05-09T03:36:36;13.40;;;3.97;;
36725;SDS011;44936;52.086;5.150;2023-05-09T03:39:02;11.07;;;3.63;;
36725;SDS011;44936;52.086;5.150;2023-05-09T03:41:27;15.38;;;3.75;;
36725;SDS011;44936;52.086;5.150;2023-05-09T03:43:53;13.73;;;4.30;;
36725;SDS011;44936;52.086;5.150;2023-05-09T03:46:18;10.75;;;3.38;;
36725;SDS011;44936;52.086;5.150;2023-05-09T03:48:43;12.63;;;4.30;;
36725;SDS011;44936;52.086;5.150;2023-05-09T03:51:09;12.90;;;4.40;;
36725;SDS011;44936;52.086;5.150;2023-05-09T03:53:34;12.43;;;3.90;;
36725;SDS011;44936;52.086;5.150;2023-05-09T03:55:59;16.10;;;4.47;;
36725;SDS011;44936;52.086;5.150;2023-05-09T03:58:25;12.63;;;3.97;;
36725;SDS011;44936;52.086;5.150;2023-05-09T04:00:50;12.02;;;4.15;;
36725;SDS011;44936;52.086;5.150;2023-05-09T04:03:16;13.48;;;4.07;;
36725;SDS011;44936;52.086;5.150;2023-05-09T04:05:41;16.55;;;4.60;;
36725;SDS011;44936;52.086;5.150;2023-05-09T04:08:06;16.75;;;5.38;;
36725;SDS011;44936;52.086;5.150;2023-05-09T04:10:31;12.88;;;4.53;;
36725;SDS011;44936;52.086;5.150;2023-05-09T04:12:57;12.85;;;4.05;;
36725;SDS011;44936;52.086;5.150;2023-05-09T04:15:23;10.80;;;3.78;;
36725;SDS011;44936;52.086;5.150;2023-05-09T04:17:48;15.32;;;4.45;;
36725;SDS011;44936;52.086;5.150;2023-05-09T04:20:13;12.35;;;4.10;;
36725;SDS011;44936;52.086;5.150;2023-05-09T04:22:39;12.45;;;3.92;;
36725;SDS011;44936;52.086;5.150;2023-05-09T04:25:04;12.82;;;4.47;;
36725;SDS011;44936;52.086;5.150;2023-05-09T04:27:30;12.35;;;3.85;;
36725;SDS011;44936;52.086;5.150;2023-05-09T04:29:56;14.07;;;3.92;;
36725;SDS011;44936;52.086;5.150;2023-05-09T04:32:21;10.18;;;3.60;;
36725;SDS011;44936;52.086;5.150;2023-05-09T04:34:47;17.33;;;4.30;;
36725;SDS011;44936;52.086;5.150;2023-05-09T04:37:13;12.55;;;4.25;;
36725;SDS011;44936;52.086;5.150;2023-05-09T04:39:38;11.68;;;3.53;;
36725;SDS011;44936;52.086;5.150;2023-05-09T04:42:05;15.13;;;3.92;;
36725;SDS011;44936;52.086;5.150;2023-05-09T04:44:30;14.27;;;4.47;;
36725;SDS011;44936;52.086;5.150;2023-05-09T04:46:57;11.18;;;3.80;;
36725;SDS011;44936;52.086;5.150;2023-05-09T04:49:22;11.88;;;3.70;;
36725;SDS011;44936;52.086;5.150;2023-05-09T04:51:48;13.35;;;3.90;;
36725;SDS011;44936;52.086;5.150;2023-05-09T04:54:14;12.93;;;4.00;;
36725;SDS011;44936;52.086;5.150;2023-05-09T04:56:40;10.52;;;3.45;;
36725;SDS011;44936;52.086;5.150;2023-05-09T04:59:05;12.30;;;4.13;;
36725;SDS011;44936;52.086;5.150;2023-05-09T05:01:30;12.18;;;3.83;;
36725;SDS011;44936;52.086;5.150;2023-05-09T05:03:56;12.00;;;3.78;;
36725;SDS011;44936;52.086;5.150;2023-05-09T05:06:21;11.07;;;3.70;;
36725;SDS011;44936;52.086;5.150;2023-05-09T05:08:49;12.10;;;4.20;;
36725;SDS011;44936;52.086;5.150;2023-05-09T05:11:14;15.38;;;4.18;;
36725;SDS011;44936;52.086;5.150;2023-05-09T05:13:41;13.27;;;3.83;;
36725;SDS011;44936;52.086;5.150;2023-05-09T05:16:07;8.30;;;3.08;;
36725;SDS011;44936;52.086;5.150;2023-05-09T05:18:32;8.90;;;3.60;;
36725;SDS011;44936;52.086;5.150;2023-05-09T05:20:58;14.60;;;4.05;;
36725;SDS011;44936;52.086;5.150;2023-05-09T05:23:23;11.30;;;3.30;;
36725;SDS011;44936;52.086;5.150;2023-05-09T05:25:48;11.65;;;3.47;;
36725;SDS011;44936;52.086;5.150;2023-05-09T05:28:14;12.48;;;4.00;;
36725;SDS011;44936;52.086;5.150;2023-05-09T05:30:39;10.73;;;3.80;;
36725;SDS011;44936;52.086;5.150;2023-05-09T05:33:08;10.50;;;3.92;;
36725;SDS011;44936;52.086;5.150;2023-05-09T05:35:33;7.90;;;3.10;;
36725;SDS011;44936;52.086;5.150;2023-05-09T05:37:59;12.60;;;3.53;;
36725;SDS011;44936;52.086;5.150;2023-05-09T05:40:24;9.85;;;3.42;;
36725;SDS011;44936;52.086;5.150;2023-05-09T05:42:50;9.88;;;3.28;;
36725;SDS011;44936;52.086;5.150;2023-05-09T05:45:15;7.00;;;2.63;;
36725;SDS011;44936;52.086;5.150;2023-05-09T05:47:41;10.00;;;3.28;;
36725;SDS011;44936;52.086;5.150;2023-05-09T05:50:06;10.23;;;3.70;;
36725;SDS011;44936;52.086;5.150;2023-05-09T05:52:35;7.20;;;2.95;;
36725;SDS011;44936;52.086;5.150;2023-05-09T05:55:01;10.27;;;3.15;;
36725;SDS011;44936;52.086;5.150;2023-05-09T05:57:27;9.45;;;3.30;;
36725;SDS011;44936;52.086;5.150;2023-05-09T05:59:52;8.55;;;3.13;;
36725;SDS011;44936;52.086;5.150;2023-05-09T06:02:18;8.82;;;3.83;;
36725;SDS011;44936;52.086;5.150;2023-05-09T06:04:43;9.57;;;3.22;;
36725;SDS011;44936;52.086;5.150;2023-05-09T06:07:09;8.68;;;3.28;;
36725;SDS011;44936;52.086;5.150;2023-05-09T06:09:36;10.65;;;3.28;;
36725;SDS011;44936;52.086;5.150;2023-05-09T06:12:02;10.75;;;3.38;;
36725;SDS011;44936;52.086;5.150;2023-05-09T06:14:28;9.75;;;3.40;;
36725;SDS011;44936;52.086;5.150;2023-05-09T06:16:53;8.00;;;2.70;;
36725;SDS011;44936;52.086;5.150;2023-05-09T06:19:18;6.57;;;2.97;;
36725;SDS011;44936;52.086;5.150;2023-05-09T06:21:47;10.80;;;3.40;;
36725;SDS011;44936;52.086;5.150;2023-05-09T06:24:12;10.55;;;3.40;;
36725;SDS011;44936;52.086;5.150;2023-05-09T06:26:38;7.63;;;3.08;;
36725;SDS011;44936;52.086;5.150;2023-05-09T06:29:04;7.15;;;3.05;;
36725;SDS011;44936;52.086;5.150;2023-05-09T06:31:30;10.85;;;3.28;;
36725;SDS011;44936;52.086;5.150;2023-05-09T06:33:56;11.77;;;3.58;;
36725;SDS011;44936;52.086;5.150;2023-05-09T06:36:21;9.73;;;3.13;;
36725;SDS011;44936;52.086;5.150;2023-05-09T06:38:46;11.15;;;3.67;;
36725;SDS011;44936;52.086;5.150;2023-05-09T06:41:12;8.23;;;3.25;;
36725;SDS011;44936;52.086;5.150;2023-05-09T06:43:37;7.68;;;3.00;;
36725;SDS011;44936;52.086;5.150;2023-05-09T06:46:05;8.35;;;3.10;;
36725;SDS011;44936;52.086;5.150;2023-05-09T06:48:33;10.85;;;3.08;;
36725;SDS011;44936;52.086;5.150;2023-05-09T06:50:58;6.82;;;2.65;;
36725;SDS011;44936;52.086;5.150;2023-05-09T06:53:26;8.73;;;3.35;;
36725;SDS011;44936;52.086;5.150;2023-05-09T06:55:51;9.95;;;3.70;;
36725;SDS011;44936;52.086;5.150;2023-05-09T06:58:16;8.57;;;2.38;;
36725;SDS011;44936;52.086;5.150;2023-05-09T07:00:42;7.97;;;2.92;;
36725;SDS011;44936;52.086;5.150;2023-05-09T07:03:15;8.57;;;3.58;;
36725;SDS011;44936;52.086;5.150;2023-05-09T07:05:41;8.95;;;2.95;;
36725;SDS011;44936;52.086;5.150;2023-05-09T07:08:06;10.70;;;3.70;;
36725;SDS011;44936;52.086;5.150;2023-05-09T07:10:32;10.23;;;3.03;;
36725;SDS011;44936;52.086;5.150;2023-05-09T07:13:00;7.53;;;2.88;;
36725;SDS011;44936;52.086;5.150;2023-05-09T07:15:26;8.05;;;3.15;;
36725;SDS011;44936;52.086;5.150;2023-05-09T07:17:51;6.68;;;2.75;;
36725;SDS011;44936;52.086;5.150;2023-05-09T07:20:20;9.23;;;2.88;;
36725;SDS011;44936;52.086;5.150;2023-05-09T07:22:45;9.55;;;3.00;;
36725;SDS011;44936;52.086;5.150;2023-05-09T07:25:10;9.15;;;3.00;;
36725;SDS011;44936;52.086;5.150;2023-05-09T07:27:36;8.20;;;3.40;;
36725;SDS011;44936;52.086;5.150;2023-05-09T07:30:05;6.20;;;2.67;;
36725;SDS011;44936;52.086;5.150;2023-05-09T07:32:31;7.43;;;2.88;;
36725;SDS011;44936;52.086;5.150;2023-05-09T07:34:57;8.07;;;2.53;;
36725;SDS011;44936;52.086;5.150;2023-05-09T07:37:23;7.32;;;2.80;;
36725;SDS011;44936;52.086;5.150;2023-05-09T07:39:48;5.90;;;2.47;;
36725;SDS011;44936;52.086;5.150;2023-05-09T07:42:13;5.53;;;2.33;;
36725;SDS011;44936;52.086;5.150;2023-05-09T07:44:40;6.97;;;2.67;;
36725;SDS011;44936;52.086;5.150;2023-05-09T07:47:05;5.78;;;2.67;;
36725;SDS011;44936;52.086;5.150;2023-05-09T07:49:32;9.35;;;3.03;;
36725;SDS011;44936;52.086;5.150;2023-05-09T07:51:58;7.10;;;2.55;;
36725;SDS011;44936;52.086;5.150;2023-05-09T07:54:24;7.78;;;3.15;;
36725;SDS011;44936;52.086;5.150;2023-05-09T07:56:50;10.00;;;2.72;;
36725;SDS011;44936;52.086;5.150;2023-05-09T07:59:15;6.53;;;2.75;;
36725;SDS011;44936;52.086;5.150;2023-05-09T08:01:41;6.45;;;2.88;;
36725;SDS011;44936;52.086;5.150;2023-05-09T08:04:06;5.55;;;2.50;;
36725;SDS011;44936;52.086;5.150;2023-05-09T08:06:33;8.88;;;2.75;;
36725;SDS011;44936;52.086;5.150;2023-05-09T08:08:58;6.85;;;3.17;;
36725;SDS011;44936;52.086;5.150;2023-05-09T08:11:24;6.10;;;2.40;;
36725;SDS011;44936;52.086;5.150;2023-05-09T08:13:49;7.07;;;2.92;;
36725;SDS011;44936;52.086;5.150;2023-05-09T08:16:15;6.28;;;2.63;;
36725;SDS011;44936;52.086;5.150;2023-05-09T08:18:41;7.53;;;2.95;;
36725;SDS011;44936;52.086;5.150;2023-05-09T08:21:07;7.30;;;2.83;;
36725;SDS011;44936;52.086;5.150;2023-05-09T08:23:32;7.32;;;2.50;;
36725;SDS011;44936;52.086;5.150;2023-05-09T08:25:58;7.03;;;2.65;;
36725;SDS011;44936;52.086;5.150;2023-05-09T08:28:23;5.80;;;2.78;;
36725;SDS011;44936;52.086;5.150;2023-05-09T08:30:49;5.90;;;2.58;;
36725;SDS011;44936;52.086;5.150;2023-05-09T08:33:15;5.85;;;2.65;;
36725;SDS011;44936;52.086;5.150;2023-05-09T08:35:41;7.43;;;2.70;;
36725;SDS011;44936;52.086;5.150;2023-05-09T08:38:07;5.97;;;2.70;;
36725;SDS011;44936;52.086;5.150;2023-05-09T08:40:36;7.88;;;2.08;;
36725;SDS011;44936;52.086;5.150;2023-05-09T08:43:02;5.93;;;2.47;;
36725;SDS011;44936;52.086;5.150;2023-05-09T08:45:53;5.22;;;2.28;;
36725;SDS011;44936;52.086;5.150;2023-05-09T08:48:24;6.35;;;2.60;;
36725;SDS011;44936;52.086;5.150;2023-05-09T08:50:53;7.13;;;2.63;;
36725;SDS011;44936;52.086;5.150;2023-05-09T08:53:20;4.78;;;2.10;;
36725;SDS011;44936;52.086;5.150;2023-05-09T08:55:47;5.97;;;2.50;;
36725;SDS011;44936;52.086;5.150;2023-05-09T08:58:13;5.78;;;2.83;;
36725;SDS011;44936;52.086;5.150;2023-05-09T09:00:43;4.13;;;2.20;;
36725;SDS011;44936;52.086;5.150;2023-05-09T09:03:12;6.25;;;2.20;;
36725;SDS011;44936;52.086;5.150;2023-05-09T09:05:39;4.85;;;1.92;;
36725;SDS011;44936;52.086;5.150;2023-05-09T09:08:08;5.70;;;2.05;;
36725;SDS011;44936;52.086;5.150;2023-05-09T09:10:38;5.50;;;2.10;;
36725;SDS011;44936;52.086;5.150;2023-05-09T09:13:11;6.55;;;2.72;;
36725;SDS011;44936;52.086;5.150;2023-05-09T09:15:37;6.53;;;2.35;;
36725;SDS011;44936;52.086;5.150;2023-05-09T09:18:06;3.67;;;1.95;;
36725;SDS011;44936;52.086;5.150;2023-05-09T09:20:46;6.53;;;2.30;;
36725;SDS011;44936;52.086;5.150;2023-05-09T09:23:18;6.93;;;2.50;;
36725;SDS011;44936;52.086;5.150;2023-05-09T09:28:35;4.40;;;1.65;;
36725;SDS011;44936;52.086;5.150;2023-05-09T09:31:02;7.82;;;2.38;;
36725;SDS011;44936;52.086;5.150;2023-05-09T09:33:43;6.07;;;2.40;;
36725;SDS011;44936;52.086;5.150;2023-05-09T09:36:09;4.45;;;2.00;;
36725;SDS011;44936;52.086;5.150;2023-05-09T09:38:40;8.45;;;2.40;;
36725;SDS011;44936;52.086;5.150;2023-05-09T09:41:12;3.58;;;1.77;;
36725;SDS011;44936;52.086;5.150;2023-05-09T09:43:38;4.47;;;1.98;;
36725;SDS011;44936;52.086;5.150;2023-05-09T09:46:11;3.60;;;1.87;;
36725;SDS011;44936;52.086;5.150;2023-05-09T09:48:38;5.57;;;2.33;;
36725;SDS011;44936;52.086;5.150;2023-05-09T09:51:07;3.58;;;1.92;;
36725;SDS011;44936;52.086;5.150;2023-05-09T09:56:06;4.90;;;2.03;;
36725;SDS011;44936;52.086;5.150;2023-05-09T09:58:32;4.90;;;2.10;;
36725;SDS011;44936;52.086;5.150;2023-05-09T10:01:08;3.00;;;1.77;;
36725;SDS011;44936;52.086;5.150;2023-05-09T10:03:44;4.35;;;1.90;;
36725;SDS011;44936;52.086;5.150;2023-05-09T10:06:10;4.43;;;1.92;;
36725;SDS011;44936;52.086;5.150;2023-05-09T10:08:41;3.20;;;1.92;;
36725;SDS011;44936;52.086;5.150;2023-05-09T10:11:08;4.05;;;1.98;;
36725;SDS011;44936;52.086;5.150;2023-05-09T10:13:34;3.75;;;1.58;;
36725;SDS011;44936;52.086;5.150;2023-05-09T10:16:02;4.22;;;1.83;;
36725;SDS011;44936;52.086;5.150;2023-05-09T10:18:29;3.90;;;2.22;;
36725;SDS011;44936;52.086;5.150;2023-05-09T10:20:55;2.85;;;1.50;;
36725;SDS011;44936;52.086;5.150;2023-05-09T10:23:28;2.83;;;1.70;;
36725;SDS011;44936;52.086;5.150;2023-05-09T10:25:57;3.40;;;1.88;;
36725;SDS011;44936;52.086;5.150;2023-05-09T10:28:34;5.30;;;1.70;;
36725;SDS011;44936;52.086;5.150;2023-05-09T10:31:21;5.03;;;1.80;;
36725;SDS011;44936;52.086;5.150;2023-05-09T10:33:50;3.22;;;1.50;;
36725;SDS011;44936;52.086;5.150;2023-05-09T10:36:18;3.65;;;1.60;;
36725;SDS011;44936;52.086;5.150;2023-05-09T10:38:45;3.33;;;1.52;;
36725;SDS011;44936;52.086;5.150;2023-05-09T10:41:12;4.97;;;1.50;;
36725;SDS011;44936;52.086;5.150;2023-05-09T10:43:38;4.28;;;1.80;;
36725;SDS011;44936;52.086;5.150;2023-05-09T10:46:04;4.65;;;2.00;;
36725;SDS011;44936;52.086;5.150;2023-05-09T10:51:57;3.70;;;1.55;;
36725;SDS011;44936;52.086;5.150;2023-05-09T10:54:26;5.10;;;1.77;;
36725;SDS011;44936;52.086;5.150;2023-05-09T10:56:53;4.40;;;1.50;;
36725;SDS011;44936;52.086;5.150;2023-05-09T11:02:20;6.53;;;1.90;;
36725;SDS011;44936;52.086;5.150;2023-05-09T11:05:11;3.88;;;1.60;;
36725;SDS011;44936;52.086;5.150;2023-05-09T11:07:44;5.53;;;1.50;;
36725;SDS011;44936;52.086;5.150;2023-05-09T11:10:16;3.15;;;1.63;;
36725;SDS011;44936;52.086;5.150;2023-05-09T11:12:55;4.15;;;1.65;;
36725;SDS011;44936;52.086;5.150;2023-05-09T11:15:25;3.83;;;1.60;;
36725;SDS011;44936;52.086;5.150;2023-05-09T11:18:06;3.40;;;1.50;;
36725;SDS011;44936;52.086;5.150;2023-05-09T11:20:49;3.15;;;1.60;;
36725;SDS011;44936;52.086;5.150;2023-05-09T11:23:18;3.25;;;1.83;;
36725;SDS011;44936;52.086;5.150;2023-05-09T11:25:46;4.53;;;1.90;;
36725;SDS011;44936;52.086;5.150;2023-05-09T11:28:27;5.15;;;1.58;;
36725;SDS011;44936;52.086;5.150;2023-05-09T11:33:59;3.45;;;1.83;;
36725;SDS011;44936;52.086;5.150;2023-05-09T11:36:29;3.38;;;1.70;;
36725;SDS011;44936;52.086;5.150;2023-05-09T11:42:27;2.88;;;1.38;;
36725;SDS011;44936;52.086;5.150;2023-05-09T11:44:53;3.30;;;1.65;;
36725;SDS011;44936;52.086;5.150;2023-05-09T11:47:20;3.33;;;1.80;;
36725;SDS011;44936;52.086;5.150;2023-05-09T11:49:49;3.63;;;1.80;;
36725;SDS011;44936;52.086;5.150;2023-05-09T11:52:15;3.83;;;1.60;;
36725;SDS011;44936;52.086;5.150;2023-05-09T11:54:45;4.25;;;1.90;;
36725;SDS011;44936;52.086;5.150;2023-05-09T12:00:44;3.42;;;1.85;;
36725;SDS011;44936;52.086;5.150;2023-05-09T12:03:10;5.68;;;1.90;;
36725;SDS011;44936;52.086;5.150;2023-05-09T12:05:36;3.97;;;1.92;;
36725;SDS011;44936;52.086;5.150;2023-05-09T12:08:15;6.18;;;2.15;;
36725;SDS011;44936;52.086;5.150;2023-05-09T12:10:41;4.78;;;1.83;;
36725;SDS011;44936;52.086;5.150;2023-05-09T12:13:06;4.72;;;2.00;;
36725;SDS011;44936;52.086;5.150;2023-05-09T12:15:37;2.97;;;1.67;;
36725;SDS011;44936;52.086;5.150;2023-05-09T12:18:04;4.20;;;2.17;;
36725;SDS011;44936;52.086;5.150;2023-05-09T12:20:45;3.63;;;1.52;;
36725;SDS011;44936;52.086;5.150;2023-05-09T12:23:14;3.72;;;1.73;;
36725;SDS011;44936;52.086;5.150;2023-05-09T12:25:54;3.08;;;1.70;;
36725;SDS011;44936;52.086;5.150;2023-05-09T12:28:24;3.72;;;1.90;;
36725;SDS011;44936;52.086;5.150;2023-05-09T12:41:23;6.38;;;1.88;;
36725;SDS011;44936;52.086;5.150;2023-05-09T12:43:55;3.08;;;1.58;;
36725;SDS011;44936;52.086;5.150;2023-05-09T13:07:13;4.18;;;1.98;;
36725;SDS011;44936;52.086;5.150;2023-05-09T13:09:52;2.33;;;1.30;;
36725;SDS011;44936;52.086;5.150;2023-05-09T13:12:19;2.55;;;1.30;;
36725;SDS011;44936;52.086;5.150;2023-05-09T13:14:44;4.35;;;1.63;;
36725;SDS011;44936;52.086;5.150;2023-05-09T13:17:19;2.67;;;1.38;;
36725;SDS011;44936;52.086;5.150;2023-05-09T13:19:44;4.53;;;1.65;;
36725;SDS011;44936;52.086;5.150;2023-05-09T13:22:13;3.47;;;1.52;;
36725;SDS011;44936;52.086;5.150;2023-05-09T13:28:07;5.22;;;1.70;;
36725;SDS011;44936;52.086;5.150;2023-05-09T13:30:36;3.65;;;1.70;;
36725;SDS011;44936;52.086;5.150;2023-05-09T13:33:01;3.72;;;1.35;;
36725;SDS011;44936;52.086;5.150;2023-05-09T13:35:26;2.53;;;1.40;;
36725;SDS011;44936;52.086;5.150;2023-05-09T13:37:52;2.83;;;1.30;;
36725;SDS011;44936;52.086;5.150;2023-05-09T13:46:55;6.28;;;1.60;;
36725;SDS011;44936;52.086;5.150;2023-05-09T13:49:22;2.88;;;1.42;;
36725;SDS011;44936;52.086;5.150;2023-05-09T13:51:51;2.88;;;1.35;;
36725;SDS011;44936;52.086;5.150;2023-05-09T13:54:18;1.02;;;0.93;;
36725;SDS011;44936;52.086;5.150;2023-05-09T13:56:57;1.70;;;1.17;;
36725;SDS011;44936;52.086;5.150;2023-05-09T13:59:25;4.03;;;1.50;;
36725;SDS011;44936;52.086;5.150;2023-05-09T14:01:51;2.80;;;1.30;;
36725;SDS011;44936;52.086;5.150;2023-05-09T14:04:16;3.50;;;1.20;;
36725;SDS011;44936;52.086;5.150;2023-05-09T14:06:42;1.80;;;1.35;;
36725;SDS011;44936;52.086;5.150;2023-05-09T14:09:17;4.63;;;1.55;;
36725;SDS011;44936;52.086;5.150;2023-05-09T14:11:46;1.63;;;1.20;;
36725;SDS011;44936;52.086;5.150;2023-05-09T14:14:16;3.58;;;1.45;;
36725;SDS011;44936;52.086;5.150;2023-05-09T14:16:42;2.75;;;1.48;;
36725;SDS011;44936;52.086;5.150;2023-05-09T14:19:21;2.72;;;1.50;;
36725;SDS011;44936;52.086;5.150;2023-05-09T14:21:47;1.45;;;1.10;;
36725;SDS011;44936;52.086;5.150;2023-05-09T14:24:13;2.55;;;1.55;;
36725;SDS011;44936;52.086;5.150;2023-05-09T14:26:42;4.30;;;1.63;;
36725;SDS011;44936;52.086;5.150;2023-05-09T14:29:08;2.13;;;1.15;;
36725;SDS011;44936;52.086;5.150;2023-05-09T14:31:33;2.58;;;1.17;;
36725;SDS011;44936;52.086;5.150;2023-05-09T14:34:00;1.70;;;1.20;;
36725;SDS011;44936;52.086;5.150;2023-05-09T14:42:45;2.25;;;1.42;;
36725;SDS011;44936;52.086;5.150;2023-05-09T14:45:11;2.03;;;1.00;;
36725;SDS011;44936;52.086;5.150;2023-05-09T15:01:27;2.17;;;1.10;;
36725;SDS011;44936;52.086;5.150;2023-05-09T15:06:54;2.20;;;1.30;;
36725;SDS011;44936;52.086;5.150;2023-05-09T15:09:20;1.83;;;1.15;;
36725;SDS011;44936;52.086;5.150;2023-05-09T15:11:46;3.60;;;1.25;;
36725;SDS011;44936;52.086;5.150;2023-05-09T15:14:15;2.25;;;1.35;;
36725;SDS011;44936;52.086;5.150;2023-05-09T15:16:47;1.15;;;1.02;;
36725;SDS011;44936;52.086;5.150;2023-05-09T15:26:04;2.03;;;1.10;;
36725;SDS011;44936;52.086;5.150;2023-05-09T15:28:33;0.98;;;0.70;;
36725;SDS011;44936;52.086;5.150;2023-05-09T15:31:01;2.28;;;1.15;;
36725;SDS011;44936;52.086;5.150;2023-05-09T15:33:27;1.15;;;0.90;;
36725;SDS011;44936;52.086;5.150;2023-05-09T15:35:56;1.23;;;0.93;;
36725;SDS011;44936;52.086;5.150;2023-05-09T15:38:27;2.45;;;1.00;;
36725;SDS011;44936;52.086;5.150;2023-05-09T15:40:52;1.17;;;0.95;;
36725;SDS011;44936;52.086;5.150;2023-05-09T15:43:20;1.48;;;1.15;;
36725;SDS011;44936;52.086;5.150;2023-05-09T15:45:46;2.30;;;1.40;;
36725;SDS011;44936;52.086;5.150;2023-05-09T15:48:15;2.20;;;1.17;;
36725;SDS011;44936;52.086;5.150;2023-05-09T15:50:41;2.45;;;1.30;;
36725;SDS011;44936;52.086;5.150;2023-05-09T15:53:11;2.17;;;1.33;;
36725;SDS011;44936;52.086;5.150;2023-05-09T15:55:36;1.38;;;1.10;;
36725;SDS011;44936;52.086;5.150;2023-05-09T15:58:02;2.78;;;1.50;;
36725;SDS011;44936;52.086;5.150;2023-05-09T16:00:27;2.22;;;1.20;;
36725;SDS011;44936;52.086;5.150;2023-05-09T16:02:54;2.42;;;1.50;;
36725;SDS011;44936;52.086;5.150;2023-05-09T16:05:20;1.77;;;1.30;;
36725;SDS011;44936;52.086;5.150;2023-05-09T16:07:53;1.38;;;1.25;;
36725;SDS011;44936;52.086;5.150;2023-05-09T16:12:44;2.30;;;1.20;;
36725;SDS011;44936;52.086;5.150;2023-05-09T16:15:10;2.10;;;1.23;;
36725;SDS011;44936;52.086;5.150;2023-05-09T16:17:36;1.60;;;1.23;;
36725;SDS011;44936;52.086;5.150;2023-05-09T16:20:01;2.70;;;1.58;;
36725;SDS011;44936;52.086;5.150;2023-05-09T16:22:27;3.03;;;1.80;;
36725;SDS011;44936;52.086;5.150;2023-05-09T16:24:52;1.98;;;1.38;;
36725;SDS011;44936;52.086;5.150;2023-05-09T16:27:18;2.60;;;1.70;;
36725;SDS011;44936;52.086;5.150;2023-05-09T16:29:44;2.08;;;1.55;;
36725;SDS011;44936;52.086;5.150;2023-05-09T16:32:12;1.52;;;1.35;;